sensor_id;sensor_type;location;lat;lon;timestamp;temperature;humidity
39067;DHT22;24821;51.988;6.020;2023-07-16T00:00:09;19.10;99.90
39067;DHT22;24821;51.988;6.020;2023-07-16T00:02:37;19.00;99.90
39067;DHT22;24821;51.988;6.020;2023-07-16T00:05:03;19.00;99.90
39067;DHT22;24821;51.988;6.020;2023-07-16T00:07:28;19.00;99.90
39067;DHT22;24821;51.988;6.020;2023-07-16T00:09:54;19.00;99.90
39067;DHT22;24821;51.988;6.020;2023-07-16T00:12:20;18.90;99.90
39067;DHT22;24821;51.988;6.020;2023-07-16T00:14:45;18.90;99.90
39067;DHT22;24821;51.988;6.020;2023-07-16T00:17:11;18.90;99.90
39067;DHT22;24821;51.988;6.020;2023-07-16T00:19:36;18.80;99.90
39067;DHT22;24821;51.988;6.020;2023-07-16T00:22:02;18.70;99.90
39067;DHT22;24821;51.988;6.020;2023-07-16T00:24:28;18.70;99.90
39067;DHT22;24821;51.988;6.020;2023-07-16T00:26:53;18.70;99.90
39067;DHT22;24821;51.988;6.020;2023-07-16T00:29:19;18.70;99.90
39067;DHT22;24821;51.988;6.020;2023-07-16T00:31:44;18.70;99.90
39067;DHT22;24821;51.988;6.020;2023-07-16T00:34:10;18.70;99.90
39067;DHT22;24821;51.988;6.020;2023-07-16T00:36:37;18.70;99.90
39067;DHT22;24821;51.988;6.020;2023-07-16T00:39:03;18.70;99.90
39067;DHT22;24821;51.988;6.020;2023-07-16T00:41:29;18.70;99.90
39067;DHT22;24821;51.988;6.020;2023-07-16T00:43:54;18.70;99.90
39067;DHT22;24821;51.988;6.020;2023-07-16T00:46:20;18.70;99.90
39067;DHT22;24821;51.988;6.020;2023-07-16T00:48:46;18.70;99.90
39067;DHT22;24821;51.988;6.020;2023-07-16T00:51:12;18.70;99.90
39067;DHT22;24821;51.988;6.020;2023-07-16T00:53:40;18.70;99.90
39067;DHT22;24821;51.988;6.020;2023-07-16T00:56:07;18.70;99.90
39067;DHT22;24821;51.988;6.020;2023-07-16T00:58:33;18.70;99.90
39067;DHT22;24821;51.988;6.020;2023-07-16T01:00:59;18.60;99.90
39067;DHT22;24821;51.988;6.020;2023-07-16T01:03:25;18.60;99.90
39067;DHT22;24821;51.988;6.020;2023-07-16T01:06:04;18.60;99.90
39067;DHT22;24821;51.988;6.020;2023-07-16T01:08:49;18.60;99.90
39067;DHT22;24821;51.988;6.020;2023-07-16T01:11:17;18.60;99.90
39067;DHT22;24821;51.988;6.020;2023-07-16T01:13:44;18.60;99.90
39067;DHT22;24821;51.988;6.020;2023-07-16T01:16:23;18.60;99.90
39067;DHT22;24821;51.988;6.020;2023-07-16T01:18:50;18.60;99.90
39067;DHT22;24821;51.988;6.020;2023-07-16T01:21:19;18.60;99.90
39067;DHT22;24821;51.988;6.020;2023-07-16T01:27:04;18.60;99.90
39067;DHT22;24821;51.988;6.020;2023-07-16T01:29:37;18.60;99.90
39067;DHT22;24821;51.988;6.020;2023-07-16T01:32:06;18.50;99.90
39067;DHT22;24821;51.988;6.020;2023-07-16T01:34:34;18.40;99.90
39067;DHT22;24821;51.988;6.020;2023-07-16T01:37:03;18.40;99.90
39067;DHT22;24821;51.988;6.020;2023-07-16T01:39:30;18.30;99.90
39067;DHT22;24821;51.988;6.020;2023-07-16T01:41:56;18.20;99.90
39067;DHT22;24821;51.988;6.020;2023-07-16T01:44:22;18.10;99.90
39067;DHT22;24821;51.988;6.020;2023-07-16T01:47:10;18.10;99.90
39067;DHT22;24821;51.988;6.020;2023-07-16T01:49:37;18.00;99.90
39067;DHT22;24821;51.988;6.020;2023-07-16T01:52:04;17.90;99.90
39067;DHT22;24821;51.988;6.020;2023-07-16T01:54:30;17.90;99.90
39067;DHT22;24821;51.988;6.020;2023-07-16T01:56:55;17.80;99.90
39067;DHT22;24821;51.988;6.020;2023-07-16T01:59:21;17.80;99.90
39067;DHT22;24821;51.988;6.020;2023-07-16T02:01:46;17.80;99.90
39067;DHT22;24821;51.988;6.020;2023-07-16T02:04:12;17.80;99.90
39067;DHT22;24821;51.988;6.020;2023-07-16T02:06:38;17.70;99.90
39067;DHT22;24821;51.988;6.020;2023-07-16T02:09:03;17.70;99.90
39067;DHT22;24821;51.988;6.020;2023-07-16T02:11:29;17.70;99.90
39067;DHT22;24821;51.988;6.020;2023-07-16T02:13:55;17.70;99.90
39067;DHT22;24821;51.988;6.020;2023-07-16T02:16:20;17.60;99.90
39067;DHT22;24821;51.988;6.020;2023-07-16T02:18:46;17.60;99.90
39067;DHT22;24821;51.988;6.020;2023-07-16T02:21:12;17.50;99.90
39067;DHT22;24821;51.988;6.020;2023-07-16T02:23:37;17.50;99.90
39067;DHT22;24821;51.988;6.020;2023-07-16T02:26:03;17.50;99.90
39067;DHT22;24821;51.988;6.020;2023-07-16T02:28:28;17.40;99.90
39067;DHT22;24821;51.988;6.020;2023-07-16T02:30:54;17.50;99.90
39067;DHT22;24821;51.988;6.020;2023-07-16T02:33:20;17.50;99.90
39067;DHT22;24821;51.988;6.020;2023-07-16T02:35:49;17.40;99.90
39067;DHT22;24821;51.988;6.020;2023-07-16T02:38:15;17.40;99.90
39067;DHT22;24821;51.988;6.020;2023-07-16T02:40:45;17.40;99.90
39067;DHT22;24821;51.988;6.020;2023-07-16T02:43:11;17.30;99.90
39067;DHT22;24821;51.988;6.020;2023-07-16T02:45:37;17.30;99.90
39067;DHT22;24821;51.988;6.020;2023-07-16T02:48:05;17.30;99.90
39067;DHT22;24821;51.988;6.020;2023-07-16T02:50:33;17.30;99.90
39067;DHT22;24821;51.988;6.020;2023-07-16T02:52:59;17.20;99.90
39067;DHT22;24821;51.988;6.020;2023-07-16T02:55:25;17.20;99.90
39067;DHT22;24821;51.988;6.020;2023-07-16T02:57:50;17.20;99.90
39067;DHT22;24821;51.988;6.020;2023-07-16T03:00:16;17.20;99.90
39067;DHT22;24821;51.988;6.020;2023-07-16T03:02:41;17.20;99.90
39067;DHT22;24821;51.988;6.020;2023-07-16T03:05:07;17.20;99.90
39067;DHT22;24821;51.988;6.020;2023-07-16T03:07:33;17.20;99.90
39067;DHT22;24821;51.988;6.020;2023-07-16T03:09:58;17.10;99.90
39067;DHT22;24821;51.988;6.020;2023-07-16T03:12:24;17.10;99.90
39067;DHT22;24821;51.988;6.020;2023-07-16T03:14:50;17.10;99.90
39067;DHT22;24821;51.988;6.020;2023-07-16T03:17:16;17.10;99.90
39067;DHT22;24821;51.988;6.020;2023-07-16T03:19:42;17.10;99.90
39067;DHT22;24821;51.988;6.020;2023-07-16T03:22:07;17.10;99.90
39067;DHT22;24821;51.988;6.020;2023-07-16T03:24:33;17.10;99.90
39067;DHT22;24821;51.988;6.020;2023-07-16T03:26:58;17.10;99.90
39067;DHT22;24821;51.988;6.020;2023-07-16T03:29:24;17.10;99.90
39067;DHT22;24821;51.988;6.020;2023-07-16T03:31:49;17.10;99.90
39067;DHT22;24821;51.988;6.020;2023-07-16T03:34:15;17.10;99.90
39067;DHT22;24821;51.988;6.020;2023-07-16T03:36:40;17.10;99.90
39067;DHT22;24821;51.988;6.020;2023-07-16T03:39:06;17.10;99.90
39067;DHT22;24821;51.988;6.020;2023-07-16T03:41:31;17.20;99.90
39067;DHT22;24821;51.988;6.020;2023-07-16T03:43:57;17.20;99.90
39067;DHT22;24821;51.988;6.020;2023-07-16T03:46:22;17.20;99.90
39067;DHT22;24821;51.988;6.020;2023-07-16T03:48:48;17.20;99.90
39067;DHT22;24821;51.988;6.020;2023-07-16T03:51:14;17.20;99.90
39067;DHT22;24821;51.988;6.020;2023-07-16T03:53:39;17.20;99.90
39067;DHT22;24821;51.988;6.020;2023-07-16T03:56:05;17.20;99.90
39067;DHT22;24821;51.988;6.020;2023-07-16T03:58:30;17.20;99.90
39067;DHT22;24821;51.988;6.020;2023-07-16T04:00:56;17.20;99.90
39067;DHT22;24821;51.988;6.020;2023-07-16T04:03:22;17.20;99.90
39067;DHT22;24821;51.988;6.020;2023-07-16T04:05:47;17.20;99.90
39067;DHT22;24821;51.988;6.020;2023-07-16T04:08:13;17.20;99.90
39067;DHT22;24821;51.988;6.020;2023-07-16T04:10:38;17.30;99.90
39067;DHT22;24821;51.988;6.020;2023-07-16T04:13:04;17.30;99.90
39067;DHT22;24821;51.988;6.020;2023-07-16T04:15:30;17.30;99.90
39067;DHT22;24821;51.988;6.020;2023-07-16T04:17:55;17.30;99.90
39067;DHT22;24821;51.988;6.020;2023-07-16T04:20:21;17.30;99.90
39067;DHT22;24821;51.988;6.020;2023-07-16T04:22:47;17.20;99.90
39067;DHT22;24821;51.988;6.020;2023-07-16T04:25:12;17.20;99.90
39067;DHT22;24821;51.988;6.020;2023-07-16T04:27:39;17.20;99.90
39067;DHT22;24821;51.988;6.020;2023-07-16T04:30:07;17.20;99.90
39067;DHT22;24821;51.988;6.020;2023-07-16T04:32:32;17.20;99.90
39067;DHT22;24821;51.988;6.020;2023-07-16T04:34:58;17.20;99.90
39067;DHT22;24821;51.988;6.020;2023-07-16T04:37:23;17.20;99.90
39067;DHT22;24821;51.988;6.020;2023-07-16T04:39:50;17.30;99.90
39067;DHT22;24821;51.988;6.020;2023-07-16T04:42:15;17.30;99.90
39067;DHT22;24821;51.988;6.020;2023-07-16T04:44:42;17.30;99.90
39067;DHT22;24821;51.988;6.020;2023-07-16T04:47:07;17.30;99.90
39067;DHT22;24821;51.988;6.020;2023-07-16T04:49:34;17.30;99.90
39067;DHT22;24821;51.988;6.020;2023-07-16T04:52:00;17.40;99.90
39067;DHT22;24821;51.988;6.020;2023-07-16T04:54:26;17.40;99.90
39067;DHT22;24821;51.988;6.020;2023-07-16T04:56:51;17.40;99.90
39067;DHT22;24821;51.988;6.020;2023-07-16T04:59:17;17.50;99.90
39067;DHT22;24821;51.988;6.020;2023-07-16T05:01:42;17.50;99.90
39067;DHT22;24821;51.988;6.020;2023-07-16T05:04:08;17.50;99.90
39067;DHT22;24821;51.988;6.020;2023-07-16T05:06:34;17.60;99.90
39067;DHT22;24821;51.988;6.020;2023-07-16T05:08:59;17.60;99.90
39067;DHT22;24821;51.988;6.020;2023-07-16T05:11:25;17.60;99.90
39067;DHT22;24821;51.988;6.020;2023-07-16T05:13:51;17.60;99.90
39067;DHT22;24821;51.988;6.020;2023-07-16T05:16:17;17.50;99.90
39067;DHT22;24821;51.988;6.020;2023-07-16T05:18:42;17.50;99.90
39067;DHT22;24821;51.988;6.020;2023-07-16T05:21:08;17.50;99.90
39067;DHT22;24821;51.988;6.020;2023-07-16T05:23:33;17.60;99.90
39067;DHT22;24821;51.988;6.020;2023-07-16T05:25:59;17.50;99.90
39067;DHT22;24821;51.988;6.020;2023-07-16T05:28:24;17.60;99.90
39067;DHT22;24821;51.988;6.020;2023-07-16T05:31:03;17.60;99.90
39067;DHT22;24821;51.988;6.020;2023-07-16T05:33:28;17.60;99.90
39067;DHT22;24821;51.988;6.020;2023-07-16T05:35:54;17.60;99.90
39067;DHT22;24821;51.988;6.020;2023-07-16T05:38:20;17.60;99.90
39067;DHT22;24821;51.988;6.020;2023-07-16T05:40:46;17.60;99.90
39067;DHT22;24821;51.988;6.020;2023-07-16T05:43:12;17.70;99.90
39067;DHT22;24821;51.988;6.020;2023-07-16T05:45:38;17.60;99.90
39067;DHT22;24821;51.988;6.020;2023-07-16T05:48:04;17.60;99.90
39067;DHT22;24821;51.988;6.020;2023-07-16T05:50:30;17.60;99.80
39067;DHT22;24821;51.988;6.020;2023-07-16T05:52:55;17.60;99.60
39067;DHT22;24821;51.988;6.020;2023-07-16T05:55:21;17.60;99.40
39067;DHT22;24821;51.988;6.020;2023-07-16T05:57:46;17.70;99.40
39067;DHT22;24821;51.988;6.020;2023-07-16T06:00:12;17.80;99.00
39067;DHT22;24821;51.988;6.020;2023-07-16T06:02:39;17.80;98.80
39067;DHT22;24821;51.988;6.020;2023-07-16T06:05:05;17.80;99.10
39067;DHT22;24821;51.988;6.020;2023-07-16T06:07:31;17.80;99.00
39067;DHT22;24821;51.988;6.020;2023-07-16T06:09:57;17.80;99.60
39067;DHT22;24821;51.988;6.020;2023-07-16T06:12:23;17.90;99.40
39067;DHT22;24821;51.988;6.020;2023-07-16T06:14:48;17.90;99.20
39067;DHT22;24821;51.988;6.020;2023-07-16T06:17:14;17.90;99.10
39067;DHT22;24821;51.988;6.020;2023-07-16T06:19:39;17.90;99.10
39067;DHT22;24821;51.988;6.020;2023-07-16T06:22:05;17.90;99.20
39067;DHT22;24821;51.988;6.020;2023-07-16T06:24:31;18.00;99.20
39067;DHT22;24821;51.988;6.020;2023-07-16T06:26:56;18.20;98.30
39067;DHT22;24821;51.988;6.020;2023-07-16T06:29:22;18.60;97.80
39067;DHT22;24821;51.988;6.020;2023-07-16T06:31:55;19.00;97.10
39067;DHT22;24821;51.988;6.020;2023-07-16T06:34:22;19.30;96.60
39067;DHT22;24821;51.988;6.020;2023-07-16T06:36:48;19.30;96.30
39067;DHT22;24821;51.988;6.020;2023-07-16T06:39:13;19.20;96.00
39067;DHT22;24821;51.988;6.020;2023-07-16T06:41:39;19.00;96.30
39067;DHT22;24821;51.988;6.020;2023-07-16T06:44:04;18.90;96.70
39067;DHT22;24821;51.988;6.020;2023-07-16T06:46:30;18.90;96.60
39067;DHT22;24821;51.988;6.020;2023-07-16T06:48:55;18.80;96.80
39067;DHT22;24821;51.988;6.020;2023-07-16T06:51:21;18.70;96.70
39067;DHT22;24821;51.988;6.020;2023-07-16T06:53:47;18.80;97.00
39067;DHT22;24821;51.988;6.020;2023-07-16T06:56:12;18.80;97.20
39067;DHT22;24821;51.988;6.020;2023-07-16T06:58:38;18.90;96.50
39067;DHT22;24821;51.988;6.020;2023-07-16T07:01:04;19.00;96.50
39067;DHT22;24821;51.988;6.020;2023-07-16T07:03:29;19.00;96.70
39067;DHT22;24821;51.988;6.020;2023-07-16T07:05:55;19.00;96.60
39067;DHT22;24821;51.988;6.020;2023-07-16T07:08:21;19.10;96.60
39067;DHT22;24821;51.988;6.020;2023-07-16T07:10:48;19.10;96.60
39067;DHT22;24821;51.988;6.020;2023-07-16T07:13:14;19.10;96.60
39067;DHT22;24821;51.988;6.020;2023-07-16T07:15:41;19.20;96.70
39067;DHT22;24821;51.988;6.020;2023-07-16T07:18:06;19.20;96.10
39067;DHT22;24821;51.988;6.020;2023-07-16T07:20:32;19.20;96.30
39067;DHT22;24821;51.988;6.020;2023-07-16T07:22:57;19.10;96.50
39067;DHT22;24821;51.988;6.020;2023-07-16T07:25:27;19.10;96.70
39067;DHT22;24821;51.988;6.020;2023-07-16T07:27:53;19.20;96.60
39067;DHT22;24821;51.988;6.020;2023-07-16T07:30:18;19.30;96.80
39067;DHT22;24821;51.988;6.020;2023-07-16T07:32:44;19.40;96.30
39067;DHT22;24821;51.988;6.020;2023-07-16T07:35:10;19.40;96.00
39067;DHT22;24821;51.988;6.020;2023-07-16T07:37:36;19.50;95.60
39067;DHT22;24821;51.988;6.020;2023-07-16T07:40:01;19.50;95.80
39067;DHT22;24821;51.988;6.020;2023-07-16T07:42:28;19.50;95.40
39067;DHT22;24821;51.988;6.020;2023-07-16T07:44:54;19.60;95.90
39067;DHT22;24821;51.988;6.020;2023-07-16T07:47:20;19.80;95.80
39067;DHT22;24821;51.988;6.020;2023-07-16T07:49:45;20.00;95.50
39067;DHT22;24821;51.988;6.020;2023-07-16T07:52:11;20.20;95.00
39067;DHT22;24821;51.988;6.020;2023-07-16T07:54:37;20.50;95.10
39067;DHT22;24821;51.988;6.020;2023-07-16T07:57:04;20.70;94.20
39067;DHT22;24821;51.988;6.020;2023-07-16T07:59:30;20.90;93.80
39067;DHT22;24821;51.988;6.020;2023-07-16T08:01:56;21.10;93.20
39067;DHT22;24821;51.988;6.020;2023-07-16T08:04:21;21.40;93.10
39067;DHT22;24821;51.988;6.020;2023-07-16T08:06:49;21.60;92.90
39067;DHT22;24821;51.988;6.020;2023-07-16T08:09:14;21.70;92.50
39067;DHT22;24821;51.988;6.020;2023-07-16T08:11:40;22.00;92.40
39067;DHT22;24821;51.988;6.020;2023-07-16T08:14:05;22.10;91.80
39067;DHT22;24821;51.988;6.020;2023-07-16T08:16:31;22.10;91.60
39067;DHT22;24821;51.988;6.020;2023-07-16T08:18:57;22.00;92.00
39067;DHT22;24821;51.988;6.020;2023-07-16T08:21:22;22.10;91.60
39067;DHT22;24821;51.988;6.020;2023-07-16T08:23:49;22.20;91.40
39067;DHT22;24821;51.988;6.020;2023-07-16T08:26:15;22.30;91.50
39067;DHT22;24821;51.988;6.020;2023-07-16T08:28:40;22.40;91.50
39067;DHT22;24821;51.988;6.020;2023-07-16T08:31:06;22.30;91.30
39067;DHT22;24821;51.988;6.020;2023-07-16T08:33:31;22.30;91.60
39067;DHT22;24821;51.988;6.020;2023-07-16T08:35:57;22.40;91.00
39067;DHT22;24821;51.988;6.020;2023-07-16T08:38:22;22.40;91.10
39067;DHT22;24821;51.988;6.020;2023-07-16T08:40:48;22.50;91.30
39067;DHT22;24821;51.988;6.020;2023-07-16T08:43:15;22.40;90.80
39067;DHT22;24821;51.988;6.020;2023-07-16T08:45:41;22.30;91.10
39067;DHT22;24821;51.988;6.020;2023-07-16T08:48:10;22.20;91.40
39067;DHT22;24821;51.988;6.020;2023-07-16T08:50:37;22.30;91.10
39067;DHT22;24821;51.988;6.020;2023-07-16T08:53:05;22.20;91.30
39067;DHT22;24821;51.988;6.020;2023-07-16T08:55:31;22.20;91.20
39067;DHT22;24821;51.988;6.020;2023-07-16T08:58:01;22.30;90.80
39067;DHT22;24821;51.988;6.020;2023-07-16T09:00:27;22.50;90.80
39067;DHT22;24821;51.988;6.020;2023-07-16T09:02:53;22.80;91.10
39067;DHT22;24821;51.988;6.020;2023-07-16T09:05:22;23.00;90.60
39067;DHT22;24821;51.988;6.020;2023-07-16T09:07:49;23.10;90.20
39067;DHT22;24821;51.988;6.020;2023-07-16T09:10:14;23.30;90.10
39067;DHT22;24821;51.988;6.020;2023-07-16T09:12:45;23.40;90.30
39067;DHT22;24821;51.988;6.020;2023-07-16T09:15:16;23.60;90.20
39067;DHT22;24821;51.988;6.020;2023-07-16T09:17:42;23.90;88.90
39067;DHT22;24821;51.988;6.020;2023-07-16T09:20:11;24.10;88.70
39067;DHT22;24821;51.988;6.020;2023-07-16T09:22:39;24.30;88.30
39067;DHT22;24821;51.988;6.020;2023-07-16T09:25:05;24.30;87.90
39067;DHT22;24821;51.988;6.020;2023-07-16T09:27:31;24.40;87.30
39067;DHT22;24821;51.988;6.020;2023-07-16T09:29:57;24.50;86.40
39067;DHT22;24821;51.988;6.020;2023-07-16T09:32:33;24.30;86.00
39067;DHT22;24821;51.988;6.020;2023-07-16T09:34:58;23.90;85.90
39067;DHT22;24821;51.988;6.020;2023-07-16T09:37:24;23.50;88.10
39067;DHT22;24821;51.988;6.020;2023-07-16T09:39:51;23.40;88.80
39067;DHT22;24821;51.988;6.020;2023-07-16T09:42:17;23.30;88.30
39067;DHT22;24821;51.988;6.020;2023-07-16T09:44:44;23.40;88.90
39067;DHT22;24821;51.988;6.020;2023-07-16T09:47:10;23.40;88.00
39067;DHT22;24821;51.988;6.020;2023-07-16T09:49:36;23.20;88.50
39067;DHT22;24821;51.988;6.020;2023-07-16T09:52:02;22.90;89.10
39067;DHT22;24821;51.988;6.020;2023-07-16T09:54:31;22.70;89.20
39067;DHT22;24821;51.988;6.020;2023-07-16T09:56:59;22.40;89.60
39067;DHT22;24821;51.988;6.020;2023-07-16T09:59:28;22.10;90.30
39067;DHT22;24821;51.988;6.020;2023-07-16T10:01:55;22.10;90.60
39067;DHT22;24821;51.988;6.020;2023-07-16T10:04:22;21.90;90.40
39067;DHT22;24821;51.988;6.020;2023-07-16T10:06:54;21.90;90.30
39067;DHT22;24821;51.988;6.020;2023-07-16T10:09:37;21.90;90.40
39067;DHT22;24821;51.988;6.020;2023-07-16T10:12:16;21.80;91.00
39067;DHT22;24821;51.988;6.020;2023-07-16T10:17:17;21.80;90.90
39067;DHT22;24821;51.988;6.020;2023-07-16T10:19:50;21.90;90.70
39067;DHT22;24821;51.988;6.020;2023-07-16T10:22:17;22.00;90.60
39067;DHT22;24821;51.988;6.020;2023-07-16T10:24:43;22.20;91.50
39067;DHT22;24821;51.988;6.020;2023-07-16T10:27:09;22.60;90.40
39067;DHT22;24821;51.988;6.020;2023-07-16T10:29:35;22.90;90.80
39067;DHT22;24821;51.988;6.020;2023-07-16T10:32:02;23.10;90.20
39067;DHT22;24821;51.988;6.020;2023-07-16T10:34:28;23.10;90.30
39067;DHT22;24821;51.988;6.020;2023-07-16T10:36:53;23.00;90.00
39067;DHT22;24821;51.988;6.020;2023-07-16T10:39:19;22.90;90.40
39067;DHT22;24821;51.988;6.020;2023-07-16T10:41:44;22.80;89.10
39067;DHT22;24821;51.988;6.020;2023-07-16T10:44:13;22.70;90.20
39067;DHT22;24821;51.988;6.020;2023-07-16T10:46:41;22.80;90.50
39067;DHT22;24821;51.988;6.020;2023-07-16T10:49:07;23.00;89.80
39067;DHT22;24821;51.988;6.020;2023-07-16T10:51:33;23.00;90.20
39067;DHT22;24821;51.988;6.020;2023-07-16T10:53:59;22.90;89.70
39067;DHT22;24821;51.988;6.020;2023-07-16T10:56:25;22.70;89.40
39067;DHT22;24821;51.988;6.020;2023-07-16T10:58:51;22.60;88.90
39067;DHT22;24821;51.988;6.020;2023-07-16T11:01:17;22.40;89.40
39067;DHT22;24821;51.988;6.020;2023-07-16T11:03:42;22.50;90.30
39067;DHT22;24821;51.988;6.020;2023-07-16T11:06:11;22.70;90.30
39067;DHT22;24821;51.988;6.020;2023-07-16T11:08:37;22.90;90.20
39067;DHT22;24821;51.988;6.020;2023-07-16T11:11:03;23.00;90.00
39067;DHT22;24821;51.988;6.020;2023-07-16T11:13:31;23.10;89.90
39067;DHT22;24821;51.988;6.020;2023-07-16T11:15:56;23.10;88.10
39067;DHT22;24821;51.988;6.020;2023-07-16T11:18:23;22.90;88.30
39067;DHT22;24821;51.988;6.020;2023-07-16T11:20:53;22.80;89.70
39067;DHT22;24821;51.988;6.020;2023-07-16T11:23:19;22.80;89.30
39067;DHT22;24821;51.988;6.020;2023-07-16T11:25:48;22.70;88.90
39067;DHT22;24821;51.988;6.020;2023-07-16T11:28:14;22.60;90.00
39067;DHT22;24821;51.988;6.020;2023-07-16T11:30:40;22.60;90.00
39067;DHT22;24821;51.988;6.020;2023-07-16T11:33:12;22.60;90.50
39067;DHT22;24821;51.988;6.020;2023-07-16T11:35:38;22.50;90.10
39067;DHT22;24821;51.988;6.020;2023-07-16T11:38:07;22.40;90.50
39067;DHT22;24821;51.988;6.020;2023-07-16T11:40:36;22.40;91.20
39067;DHT22;24821;51.988;6.020;2023-07-16T11:43:11;22.40;90.70
39067;DHT22;24821;51.988;6.020;2023-07-16T11:45:38;22.50;90.70
39067;DHT22;24821;51.988;6.020;2023-07-16T11:48:04;22.60;91.20
39067;DHT22;24821;51.988;6.020;2023-07-16T11:50:30;22.80;90.50
39067;DHT22;24821;51.988;6.020;2023-07-16T11:53:01;22.90;90.10
39067;DHT22;24821;51.988;6.020;2023-07-16T11:55:27;22.80;90.30
39067;DHT22;24821;51.988;6.020;2023-07-16T11:57:53;22.70;90.60
39067;DHT22;24821;51.988;6.020;2023-07-16T12:00:18;22.70;90.20
39067;DHT22;24821;51.988;6.020;2023-07-16T12:02:44;22.50;90.50
39067;DHT22;24821;51.988;6.020;2023-07-16T12:05:17;22.40;90.90
39067;DHT22;24821;51.988;6.020;2023-07-16T12:07:43;22.30;91.00
39067;DHT22;24821;51.988;6.020;2023-07-16T12:10:08;22.20;91.00
39067;DHT22;24821;51.988;6.020;2023-07-16T12:12:34;22.30;91.20
39067;DHT22;24821;51.988;6.020;2023-07-16T12:15:03;22.40;91.50
39067;DHT22;24821;51.988;6.020;2023-07-16T12:17:29;22.70;91.60
39067;DHT22;24821;51.988;6.020;2023-07-16T12:19:55;23.00;91.30
39067;DHT22;24821;51.988;6.020;2023-07-16T12:22:21;23.10;91.10
39067;DHT22;24821;51.988;6.020;2023-07-16T12:24:47;23.10;91.20
39067;DHT22;24821;51.988;6.020;2023-07-16T12:27:14;23.10;90.80
39067;DHT22;24821;51.988;6.020;2023-07-16T12:29:39;23.00;90.80
39067;DHT22;24821;51.988;6.020;2023-07-16T12:32:05;22.90;90.10
39067;DHT22;24821;51.988;6.020;2023-07-16T12:34:31;22.70;90.80
39067;DHT22;24821;51.988;6.020;2023-07-16T12:36:57;22.70;91.50
39067;DHT22;24821;51.988;6.020;2023-07-16T12:39:22;22.90;91.50
39067;DHT22;24821;51.988;6.020;2023-07-16T12:41:49;23.00;91.00
39067;DHT22;24821;51.988;6.020;2023-07-16T12:44:14;23.10;90.90
39067;DHT22;24821;51.988;6.020;2023-07-16T12:46:40;23.40;91.20
39067;DHT22;24821;51.988;6.020;2023-07-16T12:49:06;23.60;90.50
39067;DHT22;24821;51.988;6.020;2023-07-16T12:51:31;23.80;91.30
39067;DHT22;24821;51.988;6.020;2023-07-16T12:53:57;23.80;90.30
39067;DHT22;24821;51.988;6.020;2023-07-16T12:56:22;23.70;90.40
39067;DHT22;24821;51.988;6.020;2023-07-16T12:58:48;23.50;90.20
39067;DHT22;24821;51.988;6.020;2023-07-16T13:01:14;23.30;90.20
39067;DHT22;24821;51.988;6.020;2023-07-16T13:03:40;23.20;90.50
39067;DHT22;24821;51.988;6.020;2023-07-16T13:06:05;23.30;90.50
39067;DHT22;24821;51.988;6.020;2023-07-16T13:08:31;23.30;89.70
39067;DHT22;24821;51.988;6.020;2023-07-16T13:10:57;23.10;89.10
39067;DHT22;24821;51.988;6.020;2023-07-16T13:13:22;23.20;90.50
39067;DHT22;24821;51.988;6.020;2023-07-16T13:15:48;23.40;90.80
39067;DHT22;24821;51.988;6.020;2023-07-16T13:18:14;23.50;89.00
39067;DHT22;24821;51.988;6.020;2023-07-16T13:20:40;23.50;89.10
39067;DHT22;24821;51.988;6.020;2023-07-16T13:23:05;23.40;89.30
39067;DHT22;24821;51.988;6.020;2023-07-16T13:25:33;23.40;90.10
39067;DHT22;24821;51.988;6.020;2023-07-16T13:27:59;23.50;90.20
39067;DHT22;24821;51.988;6.020;2023-07-16T13:30:25;23.60;89.80
39067;DHT22;24821;51.988;6.020;2023-07-16T13:32:51;23.50;89.30
39067;DHT22;24821;51.988;6.020;2023-07-16T13:35:20;23.50;89.50
39067;DHT22;24821;51.988;6.020;2023-07-16T13:37:46;23.70;90.20
39067;DHT22;24821;51.988;6.020;2023-07-16T13:40:12;23.70;87.90
39067;DHT22;24821;51.988;6.020;2023-07-16T13:42:37;23.60;88.90
39067;DHT22;24821;51.988;6.020;2023-07-16T13:45:04;23.50;89.20
39067;DHT22;24821;51.988;6.020;2023-07-16T13:47:30;23.50;90.10
39067;DHT22;24821;51.988;6.020;2023-07-16T13:49:56;23.60;90.10
39067;DHT22;24821;51.988;6.020;2023-07-16T13:52:21;23.60;90.30
39067;DHT22;24821;51.988;6.020;2023-07-16T13:54:47;23.70;90.20
39067;DHT22;24821;51.988;6.020;2023-07-16T13:57:12;23.90;89.40
39067;DHT22;24821;51.988;6.020;2023-07-16T13:59:38;24.10;89.60
39067;DHT22;24821;51.988;6.020;2023-07-16T14:02:04;24.20;88.90
39067;DHT22;24821;51.988;6.020;2023-07-16T14:04:30;24.30;87.90
39067;DHT22;24821;51.988;6.020;2023-07-16T14:06:55;24.20;88.20
39067;DHT22;24821;51.988;6.020;2023-07-16T14:09:22;24.30;86.60
39067;DHT22;24821;51.988;6.020;2023-07-16T14:11:47;24.30;87.30
39067;DHT22;24821;51.988;6.020;2023-07-16T14:14:17;24.10;85.80
39067;DHT22;24821;51.988;6.020;2023-07-16T14:16:43;23.90;86.10
39067;DHT22;24821;51.988;6.020;2023-07-16T14:19:09;23.80;86.80
39067;DHT22;24821;51.988;6.020;2023-07-16T14:21:35;23.80;87.70
39067;DHT22;24821;51.988;6.020;2023-07-16T14:24:00;23.90;87.70
39067;DHT22;24821;51.988;6.020;2023-07-16T14:26:26;24.10;87.50
39067;DHT22;24821;51.988;6.020;2023-07-16T14:28:52;24.20;88.00
39067;DHT22;24821;51.988;6.020;2023-07-16T14:31:17;24.20;86.00
39067;DHT22;24821;51.988;6.020;2023-07-16T14:33:43;24.30;87.20
39067;DHT22;24821;51.988;6.020;2023-07-16T14:36:09;24.30;85.50
39067;DHT22;24821;51.988;6.020;2023-07-16T14:38:34;24.10;84.60
39067;DHT22;24821;51.988;6.020;2023-07-16T14:41:00;24.10;84.80
39067;DHT22;24821;51.988;6.020;2023-07-16T14:43:25;24.10;84.00
39067;DHT22;24821;51.988;6.020;2023-07-16T14:45:51;24.10;85.00
39067;DHT22;24821;51.988;6.020;2023-07-16T14:48:17;24.00;84.40
39067;DHT22;24821;51.988;6.020;2023-07-16T14:50:42;24.00;83.20
39067;DHT22;24821;51.988;6.020;2023-07-16T14:53:08;24.00;84.20
39067;DHT22;24821;51.988;6.020;2023-07-16T14:55:34;24.00;83.90
39067;DHT22;24821;51.988;6.020;2023-07-16T14:57:59;24.00;84.50
39067;DHT22;24821;51.988;6.020;2023-07-16T15:00:25;23.90;84.50
39067;DHT22;24821;51.988;6.020;2023-07-16T15:02:51;23.80;83.80
39067;DHT22;24821;51.988;6.020;2023-07-16T15:05:17;23.80;86.00
39067;DHT22;24821;51.988;6.020;2023-07-16T15:07:43;23.90;86.10
39067;DHT22;24821;51.988;6.020;2023-07-16T15:10:09;24.00;86.20
39067;DHT22;24821;51.988;6.020;2023-07-16T15:12:34;24.10;86.30
39067;DHT22;24821;51.988;6.020;2023-07-16T15:15:00;24.20;86.00
39067;DHT22;24821;51.988;6.020;2023-07-16T15:17:26;24.20;85.40
39067;DHT22;24821;51.988;6.020;2023-07-16T15:19:52;24.10;83.90
39067;DHT22;24821;51.988;6.020;2023-07-16T15:22:18;24.00;84.90
39067;DHT22;24821;51.988;6.020;2023-07-16T15:24:49;23.90;85.50
39067;DHT22;24821;51.988;6.020;2023-07-16T15:27:15;23.90;86.10
39067;DHT22;24821;51.988;6.020;2023-07-16T15:29:41;24.00;85.90